Time,TemperatureF,DewpointF,PressureIn,WindDirection,WindDirectionDegrees,WindSpeedMPH,WindSpeedGustMPH,Humidity,HourlyPrecipIn,Conditions,Clouds,dailyrainin,SoftwareType,DateUTC
2014-03-07 00:01:00,45.3,42.8,29.95,ENE,68,8.1,13.5,91,0.00,RA,,0.00,WeatherDisplay:10.37,2014-03-07 06:01:00,
2014-03-07 00:06:00,45.3,42.8,29.95,ENE,68,8.1,13.5,91,0.00,RA,,0.00,WeatherDisplay:10.37,2014-03-07 06:06:00,
2014-03-07 00:11:00,45.3,42.8,29.95,ENE,68,8.1,13.5,91,0.00,CLR,,0.00,WeatherDisplay:10.37,2014-03-07 06:11:00,
2014-03-07 00:16:00,45.0,42.5,29.95,NE,45,8.1,8.1,91,0.00,CLR,,0.00,WeatherDisplay:10.37,2014-03-07 06:16:00,
2014-03-07 00:21:00,45.0,42.5,29.95,NE,45,0.0,0.0,91,0.00,CLR,,0.00,WeatherDisplay:10.37,2014-03-07 06:21:00,
2014-03-07 00:26:00,44.8,42.3,29.95,ENE,68,5.8,7.8,91,0.00,,,0.00,WeatherDisplay:10.37,2014-03-07 06:26:00,
2014-03-07 00:31:00,44.6,42.1,29.96,NE,45,5.8,11.3,91,0.00,CLR,,0.00,WeatherDisplay:10.37,2014-03-07 06:31:00,
2014-03-07 00:36:00,44.6,42.1,29.96,NW,315,4.6,8.6,91,0.00,CLR,,0.00,WeatherDisplay:10.37,2014-03-07 06:36:00,
2014-03-07 00:41:00,44.4,42.0,29.96,ENE,68,8.1,114.1,91,0.00,,,0.00,WeatherDisplay:10.37,2014-03-07 06:41:00,
2014-03-07 00:46:00,44.4,42.0,29.96,ENE,68,2.3,5.3,91,0.00,CLR,,0.00,WeatherDisplay:10.37,2014-03-07 06:46:00,
2014-03-07 00:51:00,44.2,41.8,29.96,ENE,68,3.5,7.0,91,0.00,CLR,,0.00,WeatherDisplay:10.37,2014-03-07 06:51:00,
2014-03-07 00:56:00,44.2,41.8,29.96,ENE,68,8.1,9.0,91,0.00,CLR,,0.00,WeatherDisplay:10.37,2014-03-07 06:56:00,
2014-03-07 01:01:00,44.2,41.8,29.96,ENE,68,0.0,0.0,91,0.00,CLR,,0.00,WeatherDisplay:10.37,2014-03-07 07:01:00,
2014-03-07 01:06:00,44.2,41.8,29.96,ENE,68,0.0,0.0,91,0.00,CLR,,0.00,WeatherDisplay:10.37,2014-03-07 07:06:00,
2014-03-07 01:11:00,44.2,41.8,29.96,ENE,68,0.0,0.0,91,0.00,CLR,,0.00,WeatherDisplay:10.37,2014-03-07 07:11:00,
2014-03-07 01:16:00,43.9,41.1,29.96,ENE,68,4.6,4.6,90,0.00,CLR,,0.00,WeatherDisplay:10.37,2014-03-07 07:16:00,
2014-03-07 01:21:00,43.9,41.1,29.96,ENE,68,1.2,2.6,90,0.00,CLR,,0.00,WeatherDisplay:10.37,2014-03-07 07:21:00,
2014-03-07 01:26:00,43.9,41.1,29.96,ENE,68,2.3,5.3,90,0.00,CLR,,0.00,WeatherDisplay:10.37,2014-03-07 07:26:00,
2014-03-07 01:31:00,43.9,41.1,29.96,ENE,68,0.0,0.3,90,0.00,CLR,,0.00,WeatherDisplay:10.37,2014-03-07 07:31:00,
2014-03-07 01:36:00,43.7,41.2,29.95,ENE,68,4.6,8.8,91,0.00,CLR,,0.00,WeatherDisplay:10.37,2014-03-07 07:36:00,
2014-03-07 01:41:00,43.7,41.2,29.95,ENE,68,0.0,0.0,91,0.00,CLR,,0.00,WeatherDisplay:10.37,2014-03-07 07:41:00,
2014-03-07 01:46:00,43.7,41.0,29.95,ENE,68,0.0,0.0,90,0.00,CLR,,0.00,WeatherDisplay:10.37,2014-03-07 07:46:00,
2014-03-07 01:51:00,43.5,41.1,29.95,ENE,68,0.0,0.0,91,0.00,CLR,,0.00,WeatherDisplay:10.37,2014-03-07 07:51:00,
2014-03-07 01:56:00,43.5,41.1,29.95,ENE,68,0.0,0.0,91,0.00,CLR,,0.00,WeatherDisplay:10.37,2014-03-07 07:56:00,
2014-03-07 02:01:00,43.5,41.1,29.95,ENE,68,3.5,6.1,91,0.00,CLR,,0.00,WeatherDisplay:10.37,2014-03-07 08:01:00,
2014-03-07 02:06:00,43.5,41.1,29.95,ENE,68,3.5,6.1,91,0.00,CLR,,0.00,WeatherDisplay:10.37,2014-03-07 08:06:00,
2014-03-07 02:11:00,43.5,41.1,29.95,ENE,68,8.1,8.1,91,0.00,CLR,,0.00,WeatherDisplay:10.37,2014-03-07 08:11:00,
2014-03-07 02:16:00,43.5,40.8,29.95,ENE,68,2.7,5.1,90,0.00,CLR,,0.00,WeatherDisplay:10.37,2014-03-07 08:16:00,
2014-03-07 02:21:00,43.5,41.1,29.95,WNW,292,8.1,14.9,91,0.00,CLR,,0.00,WeatherDisplay:10.37,2014-03-07 08:21:00,
2014-03-07 02:26:00,43.5,41.1,29.95,NNW,338,9.2,16.1,91,0.00,CLR,,0.00,WeatherDisplay:10.37,2014-03-07 08:26:00,
2014-03-07 02:31:00,43.5,41.1,29.96,NE,45,2.3,2.3,91,0.00,CLR,,0.00,WeatherDisplay:10.37,2014-03-07 08:31:00,
2014-03-07 02:36:00,43.5,41.1,29.96,NE,45,3.5,7.9,91,0.00,CLR,,0.00,WeatherDisplay:10.37,2014-03-07 08:36:00,
2014-03-07 02:41:00,43.3,40.6,29.96,NE,45,4.6,5.7,90,0.00,CLR,,0.00,WeatherDisplay:10.37,2014-03-07 08:41:00,
2014-03-07 02:46:00,43.3,40.6,29.96,NW,315,0.0,0.0,90,0.00,CLR,,0.00,WeatherDisplay:10.37,2014-03-07 08:46:00,
2014-03-07 02:51:00,43.2,40.4,29.96,ENE,68,0.0,0.0,90,0.00,CLR,,0.00,WeatherDisplay:10.37,2014-03-07 08:51:00,
2014-03-07 02:56:00,43.0,40.2,29.96,ENE,68,2.3,2.8,90,0.00,CLR,,0.00,WeatherDisplay:10.37,2014-03-07 08:56:00,
2014-03-07 03:01:00,43.0,40.2,29.96,ENE,68,4.6,8.6,90,0.00,CLR,,0.00,WeatherDisplay:10.37,2014-03-07 09:01:00,
2014-03-07 03:06:00,43.0,40.2,29.96,ENE,68,4.6,8.6,90,0.00,CLR,,0.00,WeatherDisplay:10.37,2014-03-07 09:06:00,
2014-03-07 03:11:00,42.8,40.1,29.96,North,0,0.0,0.0,90,0.00,CLR,,0.00,WeatherDisplay:10.37,2014-03-07 09:11:00,
2014-03-07 03:16:00,42.6,39.9,29.96,ENE,68,3.5,7.9,90,0.00,CLR,,0.00,WeatherDisplay:10.37,2014-03-07 09:16:00,
2014-03-07 03:21:00,42.6,39.9,29.97,ENE,68,3.5,7.6,90,0.00,CLR,,0.00,WeatherDisplay:10.37,2014-03-07 09:21:00,
2014-03-07 03:26:00,42.4,39.7,29.97,ENE,68,9.2,17.5,90,0.00,CLR,,0.00,WeatherDisplay:10.37,2014-03-07 09:26:00,
2014-03-07 03:31:00,42.4,39.7,29.97,NNE,22,5.8,10.6,90,0.00,CLR,,0.00,WeatherDisplay:10.37,2014-03-07 09:31:00,
2014-03-07 03:36:00,42.4,39.7,29.97,North,0,3.5,6.1,90,0.00,CLR,,0.00,WeatherDisplay:10.37,2014-03-07 09:36:00,
2014-03-07 03:41:00,42.4,39.7,29.97,NE,45,4.6,8.8,90,0.00,CLR,,0.00,WeatherDisplay:10.37,2014-03-07 09:41:00,
2014-03-07 03:46:00,42.4,39.7,29.97,ENE,68,0.0,0.0,90,0.00,CLR,,0.00,WeatherDisplay:10.37,2014-03-07 09:46:00,
2014-03-07 03:51:00,42.4,39.7,29.98,North,0,0.0,0.0,90,0.00,CLR,,0.00,WeatherDisplay:10.37,2014-03-07 09:51:00,
2014-03-07 03:56:00,42.3,39.5,29.98,ENE,68,12.8,25.4,90,0.00,CLR,,0.00,WeatherDisplay:10.37,2014-03-07 09:56:00,
2014-03-07 04:01:00,42.3,39.8,29.98,NE,45,0.0,0.0,91,0.00,CLR,,0.00,WeatherDisplay:10.37,2014-03-07 10:01:00,
2014-03-07 04:06:00,42.1,39.6,29.98,North,0,8.1,14.2,91,0.00,CLR,,0.00,WeatherDisplay:10.37,2014-03-07 10:06:00,
2014-03-07 04:11:00,42.1,39.6,29.98,ENE,68,11.5,22.6,91,0.00,CLR,,0.00,WeatherDisplay:10.37,2014-03-07 10:11:00,
2014-03-07 04:16:00,42.1,39.6,29.98,NE,45,6.9,6.9,91,0.00,CLR,,0.00,WeatherDisplay:10.37,2014-03-07 10:16:00,
2014-03-07 04:21:00,42.1,39.6,29.98,NW,315,8.1,15.8,91,0.00,CLR,,0.00,WeatherDisplay:10.37,2014-03-07 10:21:00,
2014-03-07 04:26:00,42.1,39.4,29.98,NE,45,2.3,2.3,90,0.00,CLR,,0.00,WeatherDisplay:10.37,2014-03-07 10:26:00,
2014-03-07 04:31:00,42.1,39.4,29.98,NE,45,0.0,0.0,90,0.00,CLR,,0.00,WeatherDisplay:10.37,2014-03-07 10:31:00,
2014-03-07 04:36:00,42.1,39.4,29.98,NNE,22,10.4,10.4,90,0.00,CLR,,0.00,WeatherDisplay:10.37,2014-03-07 10:36:00,
2014-03-07 04:41:00,42.1,39.4,29.98,NW,315,13.8,19.6,90,0.00,CLR,,0.00,WeatherDisplay:10.37,2014-03-07 10:41:00,
2014-03-07 04:46:00,42.1,39.4,29.99,NE,45,4.6,8.5,90,0.00,CLR,,0.00,WeatherDisplay:10.37,2014-03-07 10:46:00,
2014-03-07 04:51:00,42.1,39.4,29.99,North,0,9.2,18.2,90,0.00,CLR,,0.00,WeatherDisplay:10.37,2014-03-07 10:51:00,
2014-03-07 04:56:00,42.1,39.4,29.99,NNE,22,3.5,4.2,90,0.00,CLR,,0.00,WeatherDisplay:10.37,2014-03-07 10:56:00,
2014-03-07 05:01:00,41.9,39.2,29.99,NNE,22,2.3,3.2,90,0.00,CLR,,0.00,WeatherDisplay:10.37,2014-03-07 11:01:00,
2014-03-07 05:06:00,42.1,39.4,29.99,NE,45,5.8,9.5,90,0.00,CLR,,0.00,WeatherDisplay:10.37,2014-03-07 11:06:00,
2014-03-07 05:11:00,41.9,39.2,29.99,ENE,68,6.9,11.1,90,0.00,CLR,,0.00,WeatherDisplay:10.37,2014-03-07 11:11:00,
2014-03-07 05:16:00,41.9,39.2,29.99,NE,45,2.3,2.3,90,0.00,CLR,,0.00,WeatherDisplay:10.37,2014-03-07 11:16:00,
2014-03-07 05:21:00,41.9,39.2,29.99,NW,315,2.3,2.3,90,0.00,CLR,,0.00,WeatherDisplay:10.37,2014-03-07 11:21:00,
2014-03-07 05:26:00,41.9,39.2,29.99,ENE,68,4.6,4.6,90,0.00,CLR,,0.00,WeatherDisplay:10.37,2014-03-07 11:26:00,
2014-03-07 05:31:00,41.9,39.2,30.00,North,0,3.5,3.5,90,0.00,CLR,,0.00,WeatherDisplay:10.37,2014-03-07 11:31:00,
2014-03-07 05:36:00,41.9,39.2,30.00,NE,45,9.2,18.4,90,0.00,CLR,,0.00,WeatherDisplay:10.37,2014-03-07 11:36:00,
2014-03-07 05:41:00,41.7,39.0,30.00,North,0,4.6,8.0,90,0.00,CLR,,0.00,WeatherDisplay:10.37,2014-03-07 11:41:00,
2014-03-07 05:46:00,41.7,39.0,30.00,NNE,22,1.2,1.8,90,0.00,CLR,,0.00,WeatherDisplay:10.37,2014-03-07 11:46:00,
2014-03-07 05:51:00,41.7,39.0,30.00,NW,315,2.3,4.4,90,0.00,CLR,,0.00,WeatherDisplay:10.37,2014-03-07 11:51:00,
2014-03-07 05:56:00,41.7,39.0,30.00,ENE,68,4.6,7.5,90,0.00,CLR,,0.00,WeatherDisplay:10.37,2014-03-07 11:56:00,
2014-03-07 06:01:00,41.7,39.0,30.00,NE,45,7.1,13.2,90,0.00,CLR,,0.00,WeatherDisplay:10.37,2014-03-07 12:01:00,
2014-03-07 06:06:00,41.7,39.0,30.00,ENE,68,5.8,9.9,90,0.00,CLR,,0.00,WeatherDisplay:10.37,2014-03-07 12:06:00,
2014-03-07 06:11:00,41.7,39.0,30.00,NE,45,4.0,6.8,90,0.00,CLR,,0.00,WeatherDisplay:10.37,2014-03-07 12:11:00,
2014-03-07 06:16:00,41.7,39.0,30.01,NNE,22,13.8,28.0,90,0.00,CLR,,0.00,WeatherDisplay:10.37,2014-03-07 12:16:00,
2014-03-07 06:21:00,41.7,39.0,30.01,ENE,68,0.9,0.0,90,0.00,CLR,,0.00,WeatherDisplay:10.37,2014-03-07 12:21:00,
2014-03-07 06:26:00,41.7,39.0,30.01,ENE,68,6.9,12.4,90,0.00,CLR,,0.00,WeatherDisplay:10.37,2014-03-07 12:26:00,
2014-03-07 06:31:00,41.7,38.7,30.01,ENE,68,8.4,16.6,89,0.00,CLR,,0.00,WeatherDisplay:10.37,2014-03-07 12:31:00,
2014-03-07 06:36:00,41.5,38.5,30.02,ENE,68,13.8,13.8,89,0.00,CLR,,0.00,WeatherDisplay:10.37,2014-03-07 12:36:00,
2014-03-07 06:41:00,41.5,38.5,30.02,NE,45,1.2,2.6,89,0.00,CLR,,0.00,WeatherDisplay:10.37,2014-03-07 12:41:00,
2014-03-07 06:46:00,41.7,38.7,30.03,NNW,338,5.8,10.4,89,0.00,CLR,,0.00,WeatherDisplay:10.37,2014-03-07 12:46:00,
2014-03-07 06:51:00,41.7,38.7,30.03,NE,45,13.8,13.8,89,0.00,CLR,,0.00,WeatherDisplay:10.37,2014-03-07 12:51:00,
2014-03-07 06:56:00,41.5,38.5,30.03,NE,45,9.2,14.6,89,0.00,CLR,,0.00,WeatherDisplay:10.37,2014-03-07 12:56:00,
2014-03-07 07:01:00,41.7,38.7,30.03,NNE,22,4.9,9.6,89,0.00,CLR,,0.00,WeatherDisplay:10.37,2014-03-07 13:01:00,
2014-03-07 07:06:00,41.5,38.5,30.03,ENE,68,6.9,0.0,89,0.00,CLR,,0.00,WeatherDisplay:10.37,2014-03-07 13:06:00,
2014-03-07 07:11:00,41.7,38.7,30.04,ENE,68,3.5,7.0,89,0.00,CLR,,0.00,WeatherDisplay:10.37,2014-03-07 13:11:00,
2014-03-07 07:16:00,41.7,38.7,30.04,ENE,68,9.2,9.2,89,0.00,CLR,,0.00,WeatherDisplay:10.37,2014-03-07 13:16:00,
2014-03-07 07:21:00,41.9,38.9,30.04,ENE,68,2.7,2.7,89,0.00,CLR,,0.00,WeatherDisplay:10.37,2014-03-07 13:21:00,
2014-03-07 07:26:00,41.9,38.9,30.04,ENE,68,2.3,2.3,89,0.00,CLR,,0.00,WeatherDisplay:10.37,2014-03-07 13:26:00,
2014-03-07 07:31:00,42.1,39.1,30.04,NE,45,1.2,1.8,89,0.00,CLR,,0.00,WeatherDisplay:10.37,2014-03-07 13:31:00,
2014-03-07 07:36:00,41.9,38.9,30.04,ENE,68,5.8,9.4,89,0.00,CLR,,0.00,WeatherDisplay:10.37,2014-03-07 13:36:00,
2014-03-07 07:41:00,42.1,39.1,30.04,ENE,68,6.9,9.2,89,0.00,CLR,,0.00,WeatherDisplay:10.37,2014-03-07 13:41:00,
2014-03-07 07:46:00,42.1,39.1,30.04,ENE,68,0.0,0.0,89,0.00,CLR,,0.00,WeatherDisplay:10.37,2014-03-07 13:46:00,
2014-03-07 07:51:00,42.1,38.8,30.05,ENE,68,8.1,15.8,88,0.00,CLR,,0.00,WeatherDisplay:10.37,2014-03-07 13:51:00,
2014-03-07 07:56:00,42.1,38.8,30.05,ENE,68,4.6,4.8,88,0.00,CLR,,0.00,WeatherDisplay:10.37,2014-03-07 13:56:00,
2014-03-07 08:01:00,42.1,38.8,30.05,ENE,68,1.3,2.6,88,0.00,CLR,,0.00,WeatherDisplay:10.37,2014-03-07 14:01:00,
2014-03-07 08:06:00,42.3,39.0,30.06,ENE,68,12.7,18.6,88,0.00,CLR,,0.00,WeatherDisplay:10.37,2014-03-07 14:06:00,
2014-03-07 08:11:00,42.4,39.1,30.06,NE,45,9.2,12.2,88,0.00,CLR,,0.00,WeatherDisplay:10.37,2014-03-07 14:11:00,
2014-03-07 08:16:00,42.4,39.1,30.06,NE,45,6.2,12.3,88,0.00,CLR,,0.00,WeatherDisplay:10.37,2014-03-07 14:16:00,
2014-03-07 08:21:00,42.6,39.3,30.06,ENE,68,17.3,35.0,88,0.00,,,0.00,WeatherDisplay:10.37,2014-03-07 14:21:00,
2014-03-07 08:26:00,42.6,39.3,30.07,ENE,68,9.3,18.0,88,0.00,CLR,,0.00,WeatherDisplay:10.37,2014-03-07 14:26:00,
2014-03-07 08:31:00,42.6,39.0,30.07,ENE,68,9.7,19.3,87,0.00,CLR,,0.00,WeatherDisplay:10.37,2014-03-07 14:31:00,
2014-03-07 08:36:00,42.6,39.0,30.07,NE,45,9.2,18.4,87,0.00,CLR,,0.00,WeatherDisplay:10.37,2014-03-07 14:36:00,
2014-03-07 08:41:00,43.0,39.4,30.07,ENE,68,10.4,18.5,87,0.00,CLR,,0.00,WeatherDisplay:10.37,2014-03-07 14:41:00,
2014-03-07 08:46:00,43.0,39.4,30.07,ENE,68,9.2,19.3,87,0.00,CLR,,0.00,WeatherDisplay:10.37,2014-03-07 14:46:00,
2014-03-07 08:51:00,43.3,39.7,30.07,North,0,5.8,10.8,87,0.00,CLR,,0.00,WeatherDisplay:10.37,2014-03-07 14:51:00,
2014-03-07 08:56:00,44.2,40.6,30.06,ENE,68,11.9,22.0,87,0.00,CLR,,0.00,WeatherDisplay:10.37,2014-03-07 14:56:00,
2014-03-07 09:01:00,44.6,41.0,30.06,ENE,68,11.5,22.8,87,0.00,CLR,,0.00,WeatherDisplay:10.37,2014-03-07 15:01:00,
2014-03-07 09:06:00,45.0,41.0,30.06,ENE,68,6.9,13.1,86,0.00,CLR,,0.00,WeatherDisplay:10.37,2014-03-07 15:06:00,
2014-03-07 09:11:00,45.0,40.7,30.06,ENE,68,13.8,24.6,85,0.00,CLR,,0.00,WeatherDisplay:10.37,2014-03-07 15:11:00,
2014-03-07 09:16:00,45.0,40.7,30.06,ENE,68,11.5,22.8,85,0.00,CLR,,0.00,WeatherDisplay:10.37,2014-03-07 15:16:00,
2014-03-07 09:21:00,45.1,40.9,30.06,ENE,68,11.5,22.3,85,0.00,CLR,,0.00,WeatherDisplay:10.37,2014-03-07 15:21:00,
2014-03-07 09:26:00,45.3,40.8,30.06,NNE,22,11.5,11.5,84,0.00,CLR,,0.00,WeatherDisplay:10.37,2014-03-07 15:26:00,
2014-03-07 09:31:00,45.7,41.1,30.06,ENE,68,0.0,0.0,84,0.00,CLR,,0.00,WeatherDisplay:10.37,2014-03-07 15:31:00,
2014-03-07 09:36:00,46.0,41.2,30.06,ENE,68,13.8,22.5,83,0.00,CLR,,0.00,WeatherDisplay:10.37,2014-03-07 15:36:00,
2014-03-07 09:41:00,45.9,41.0,30.06,NNE,22,0.0,3.0,83,0.00,CLR,,0.00,WeatherDisplay:10.37,2014-03-07 15:41:00,
2014-03-07 09:46:00,45.7,40.8,30.07,ENE,68,9.2,18.4,83,0.00,CLR,,0.00,WeatherDisplay:10.37,2014-03-07 15:46:00,
2014-03-07 09:51:00,46.2,41.3,30.07,ENE,68,4.6,10.6,83,0.00,CLR,,0.00,WeatherDisplay:10.37,2014-03-07 15:51:00,
2014-03-07 09:56:00,46.6,41.7,30.07,ENE,68,11.5,18.1,83,0.00,CLR,,0.00,WeatherDisplay:10.37,2014-03-07 15:56:00,
2014-03-07 10:01:00,46.6,41.7,30.08,ENE,68,3.5,6.1,83,0.00,CLR,,0.00,WeatherDisplay:10.37,2014-03-07 16:01:00,
2014-03-07 10:06:00,46.6,41.4,30.07,ENE,68,13.8,19.7,82,0.00,CLR,,0.00,WeatherDisplay:10.37,2014-03-07 16:06:00,
2014-03-07 10:11:00,46.4,40.9,30.07,East,90,16.4,32.4,81,0.00,,,0.00,WeatherDisplay:10.37,2014-03-07 16:11:00,
2014-03-07 10:16:00,46.6,41.1,30.07,ENE,68,15.0,28.9,81,0.00,,,0.00,WeatherDisplay:10.37,2014-03-07 16:16:00,
2014-03-07 10:21:00,47.1,41.9,30.07,East,90,13.8,27.0,82,0.00,CLR,,0.00,WeatherDisplay:10.37,2014-03-07 16:21:00,
2014-03-07 10:26:00,47.3,42.1,30.07,ENE,68,11.5,20.6,82,0.00,CLR,,0.00,WeatherDisplay:10.37,2014-03-07 16:26:00,
2014-03-07 10:31:00,48.0,42.1,30.07,ENE,68,12.7,25.4,80,0.00,CLR,,0.00,WeatherDisplay:10.37,2014-03-07 16:31:00,
2014-03-07 10:36:00,48.2,42.0,30.07,East,90,20.7,35.9,79,0.00,,,0.00,WeatherDisplay:10.37,2014-03-07 16:36:00,
2014-03-07 10:41:00,48.4,41.8,30.06,NE,45,12.7,21.9,78,0.00,CLR,,0.00,WeatherDisplay:10.37,2014-03-07 16:41:00,
2014-03-07 10:46:00,48.4,42.2,30.06,ENE,68,20.7,42.0,79,0.00,,,0.00,WeatherDisplay:10.37,2014-03-07 16:46:00,
2014-03-07 10:51:00,48.6,42.0,30.06,ENE,68,17.7,30.6,78,0.00,,,0.00,WeatherDisplay:10.37,2014-03-07 16:51:00,
2014-03-07 10:56:00,48.7,42.2,30.06,ENE,68,13.8,27.2,78,0.00,CLR,,0.00,WeatherDisplay:10.37,2014-03-07 16:56:00,
2014-03-07 11:01:00,48.9,42.4,30.06,East,90,11.1,13.4,78,0.00,CLR,,0.00,WeatherDisplay:10.37,2014-03-07 17:01:00,
2014-03-07 11:06:00,49.6,43.1,30.05,SE,135,17.3,33.3,78,0.00,,,0.00,WeatherDisplay:10.37,2014-03-07 17:06:00,
2014-03-07 11:11:00,50.2,43.2,30.04,ENE,68,17.3,31.6,77,0.00,,,0.00,WeatherDisplay:10.37,2014-03-07 17:11:00,
2014-03-07 11:16:00,50.4,43.1,30.05,East,90,15.0,30.7,76,0.00,,,0.00,WeatherDisplay:10.37,2014-03-07 17:16:00,
2014-03-07 11:21:00,50.5,43.3,30.05,ENE,68,11.5,15.9,76,0.00,CLR,,0.00,WeatherDisplay:10.37,2014-03-07 17:21:00,
2014-03-07 11:26:00,50.7,43.4,30.05,ENE,68,13.8,25.8,76,0.00,CLR,,0.00,WeatherDisplay:10.37,2014-03-07 17:26:00,
2014-03-07 11:31:00,51.1,43.8,30.05,ENE,68,2.3,0.0,76,0.00,CLR,,0.00,WeatherDisplay:10.37,2014-03-07 17:31:00,
2014-03-07 11:36:00,51.6,44.3,30.04,North,0,0.0,0.0,76,0.00,CLR,,0.00,WeatherDisplay:10.37,2014-03-07 17:36:00,
2014-03-07 11:41:00,51.6,44.0,30.04,ENE,68,0.0,0.0,75,0.00,CLR,,0.00,WeatherDisplay:10.37,2014-03-07 17:41:00,
2014-03-07 11:46:00,51.6,44.0,30.03,ENE,68,0.0,0.0,75,0.00,CLR,,0.00,WeatherDisplay:10.37,2014-03-07 17:46:00,
2014-03-07 11:51:00,51.6,44.0,30.02,ENE,68,0.0,0.0,75,0.00,CLR,,0.00,WeatherDisplay:10.37,2014-03-07 17:51:00,
2014-03-07 11:56:00,51.6,43.6,30.03,East,90,0.0,0.0,74,0.00,CLR,,0.00,WeatherDisplay:10.37,2014-03-07 17:56:00,
2014-03-07 12:01:00,51.6,43.6,30.03,ENE,68,0.0,0.0,74,0.00,CLR,,0.00,WeatherDisplay:10.37,2014-03-07 18:01:00,
2014-03-07 12:06:00,51.6,44.0,30.02,East,90,0.0,0.0,75,0.00,CLR,,0.00,WeatherDisplay:10.37,2014-03-07 18:06:00,
2014-03-07 12:11:00,51.8,43.8,30.02,ENE,68,0.0,0.0,74,0.00,CLR,,0.00,WeatherDisplay:10.37,2014-03-07 18:11:00,
2014-03-07 12:16:00,52.3,44.6,30.02,ENE,68,11.5,21.9,75,0.00,CLR,,0.00,WeatherDisplay:10.37,2014-03-07 18:16:00,
2014-03-07 12:21:00,52.7,45.0,30.02,NE,45,0.0,0.0,75,0.00,CLR,,0.00,WeatherDisplay:10.37,2014-03-07 18:21:00,
2014-03-07 12:26:00,52.9,44.8,30.03,ENE,68,0.0,0.0,74,0.00,CLR,,0.00,WeatherDisplay:10.37,2014-03-07 18:26:00,
2014-03-07 12:31:00,52.9,45.2,30.02,NE,45,0.0,0.0,75,0.00,CLR,,0.00,WeatherDisplay:10.37,2014-03-07 18:31:00,
2014-03-07 12:36:00,53.4,45.3,30.02,NW,315,0.0,0.0,74,0.00,CLR,,0.00,WeatherDisplay:10.37,2014-03-07 18:36:00,
2014-03-07 12:41:00,54.0,45.9,30.02,NNW,338,0.0,0.0,74,0.00,CLR,,0.00,WeatherDisplay:10.37,2014-03-07 18:41:00,
2014-03-07 12:46:00,54.3,46.2,30.02,ENE,68,0.0,0.0,74,0.00,CLR,,0.00,WeatherDisplay:10.37,2014-03-07 18:46:00,
2014-03-07 12:51:00,54.5,46.4,30.02,ENE,68,0.0,0.0,74,0.00,CLR,,0.00,WeatherDisplay:10.37,2014-03-07 18:51:00,
2014-03-07 12:56:00,54.3,45.5,30.01,ENE,68,0.0,0.0,72,0.00,CLR,,0.00,WeatherDisplay:10.37,2014-03-07 18:56:00,
2014-03-07 13:01:00,54.3,45.5,30.01,ENE,68,0.0,0.0,72,0.00,CLR,,0.00,WeatherDisplay:10.37,2014-03-07 19:01:00,
2014-03-07 13:06:00,54.3,45.5,30.01,NNE,22,0.0,0.0,72,0.00,CLR,,0.00,WeatherDisplay:10.37,2014-03-07 19:06:00,
2014-03-07 13:11:00,54.5,45.7,30.00,NW,315,0.0,0.0,72,0.00,CLR,,0.00,WeatherDisplay:10.37,2014-03-07 19:11:00,
2014-03-07 13:16:00,55.2,46.3,30.01,ENE,68,8.1,16.6,72,0.00,CLR,,0.00,WeatherDisplay:10.37,2014-03-07 19:16:00,
2014-03-07 13:21:00,55.2,46.0,30.01,ENE,68,0.0,0.0,71,0.00,CLR,,0.00,WeatherDisplay:10.37,2014-03-07 19:21:00,
2014-03-07 13:26:00,55.4,46.2,30.01,ENE,68,0.0,0.0,71,0.00,CLR,,0.00,WeatherDisplay:10.37,2014-03-07 19:26:00,
2014-03-07 13:31:00,55.9,46.7,30.01,East,90,0.0,0.0,71,0.00,CLR,,0.00,WeatherDisplay:10.37,2014-03-07 19:31:00,
2014-03-07 13:36:00,55.9,46.3,30.01,ENE,68,0.0,0.0,70,0.00,CLR,,0.00,WeatherDisplay:10.37,2014-03-07 19:36:00,
2014-03-07 13:41:00,55.6,45.6,30.01,ENE,68,0.0,0.0,69,0.00,CLR,,0.00,WeatherDisplay:10.37,2014-03-07 19:41:00,
2014-03-07 13:46:00,55.2,45.6,30.01,NNW,338,0.0,0.0,70,0.00,CLR,,0.00,WeatherDisplay:10.37,2014-03-07 19:46:00,
2014-03-07 13:51:00,56.1,46.8,30.00,SW,225,0.0,0.0,71,0.00,CLR,,0.00,WeatherDisplay:10.37,2014-03-07 19:51:00,
2014-03-07 13:56:00,56.5,46.8,30.00,ENE,68,0.0,0.0,70,0.00,CLR,,0.00,WeatherDisplay:10.37,2014-03-07 19:56:00,
2014-03-07 14:01:00,56.7,47.0,30.00,NW,315,0.0,0.0,70,0.00,CLR,,0.00,WeatherDisplay:10.37,2014-03-07 20:01:00,
2014-03-07 14:06:00,56.8,47.2,30.00,NE,45,0.0,0.0,70,0.00,CLR,,0.00,WeatherDisplay:10.37,2014-03-07 20:06:00,
2014-03-07 14:11:00,56.8,47.2,30.00,ENE,68,0.0,0.0,70,0.00,CLR,,0.00,WeatherDisplay:10.37,2014-03-07 20:11:00,
2014-03-07 14:16:00,57.0,47.3,30.00,West,270,0.4,0.9,70,0.00,CLR,,0.00,WeatherDisplay:10.37,2014-03-07 20:16:00,
2014-03-07 14:21:00,57.7,48.0,30.00,West,270,0.0,0.0,70,0.00,CLR,,0.00,WeatherDisplay:10.37,2014-03-07 20:21:00,
2014-03-07 14:26:00,58.1,48.4,30.00,North,0,0.0,0.0,70,0.00,CLR,,0.00,WeatherDisplay:10.37,2014-03-07 20:26:00,
2014-03-07 14:31:00,58.3,48.5,30.00,NW,315,0.0,0.0,70,0.00,CLR,,0.00,WeatherDisplay:10.37,2014-03-07 20:31:00,
2014-03-07 14:36:00,58.3,48.5,30.00,NNW,338,0.0,0.0,70,0.00,CLR,,0.00,WeatherDisplay:10.37,2014-03-07 20:36:00,
2014-03-07 14:41:00,58.5,48.7,30.00,NW,315,0.0,0.0,70,0.00,CLR,,0.00,WeatherDisplay:10.37,2014-03-07 20:41:00,
2014-03-07 14:46:00,58.8,48.7,30.00,WNW,292,0.0,0.0,69,0.00,CLR,,0.00,WeatherDisplay:10.37,2014-03-07 20:46:00,
2014-03-07 14:51:00,58.8,48.7,30.00,West,270,0.0,0.0,69,0.00,CLR,,0.00,WeatherDisplay:10.37,2014-03-07 20:51:00,
2014-03-07 14:56:00,58.8,48.7,30.00,West,270,1.3,1.9,69,0.00,CLR,,0.00,WeatherDisplay:10.37,2014-03-07 20:56:00,
2014-03-07 15:01:00,58.8,48.3,29.99,NNE,22,0.0,0.0,68,0.00,CLR,,0.00,WeatherDisplay:10.37,2014-03-07 21:01:00,
2014-03-07 15:06:00,58.8,48.3,30.00,West,270,0.0,0.0,68,0.00,CLR,,0.00,WeatherDisplay:10.37,2014-03-07 21:06:00,
2014-03-07 15:11:00,58.8,48.3,30.00,NW,315,0.0,0.0,68,0.00,CLR,,0.00,WeatherDisplay:10.37,2014-03-07 21:11:00,
2014-03-07 15:16:00,58.8,48.3,30.00,West,270,0.0,0.0,68,0.00,CLR,,0.00,WeatherDisplay:10.37,2014-03-07 21:16:00,
2014-03-07 15:21:00,58.8,48.3,30.00,NW,315,0.0,0.0,68,0.00,CLR,,0.00,WeatherDisplay:10.37,2014-03-07 21:21:00,
2014-03-07 15:26:00,58.8,48.3,30.00,West,270,0.0,0.0,68,0.00,CLR,,0.00,WeatherDisplay:10.37,2014-03-07 21:26:00,
2014-03-07 15:31:00,58.8,48.3,30.00,NW,315,0.0,0.0,68,0.00,CLR,,0.00,WeatherDisplay:10.37,2014-03-07 21:31:00,
2014-03-07 15:36:00,58.8,48.3,30.00,West,270,0.0,0.0,68,0.00,CLR,,0.00,WeatherDisplay:10.37,2014-03-07 21:36:00,
2014-03-07 15:41:00,58.8,48.3,30.01,WSW,248,1.2,1.8,68,0.00,CLR,,0.00,WeatherDisplay:10.37,2014-03-07 21:41:00,
2014-03-07 15:46:00,58.8,48.7,30.01,NW,315,0.0,0.0,69,0.00,CLR,,0.00,WeatherDisplay:10.37,2014-03-07 21:46:00,
2014-03-07 15:51:00,58.8,48.3,30.01,WNW,292,0.0,0.0,68,0.00,CLR,,0.00,WeatherDisplay:10.37,2014-03-07 21:51:00,
2014-03-07 15:56:00,58.6,48.1,30.00,WNW,292,0.0,0.0,68,0.00,CLR,,0.00,WeatherDisplay:10.37,2014-03-07 21:56:00,
2014-03-07 16:01:00,58.6,48.5,30.00,West,270,0.0,0.0,69,0.00,CLR,,0.00,WeatherDisplay:10.37,2014-03-07 22:01:00,
2014-03-07 16:06:00,58.6,48.1,30.00,WNW,292,0.0,0.0,68,0.00,CLR,,0.00,WeatherDisplay:10.37,2014-03-07 22:06:00,
2014-03-07 16:11:00,58.6,48.5,30.00,NNE,22,0.0,0.0,69,0.00,CLR,,0.00,WeatherDisplay:10.37,2014-03-07 22:11:00,
2014-03-07 16:16:00,58.5,47.9,30.00,West,270,0.0,0.0,68,0.00,CLR,,0.00,WeatherDisplay:10.37,2014-03-07 22:16:00,
2014-03-07 16:21:00,58.1,48.0,30.01,NW,315,0.0,0.0,69,0.00,CLR,,0.00,WeatherDisplay:10.37,2014-03-07 22:21:00,
2014-03-07 16:26:00,57.9,47.8,30.01,WNW,292,0.0,0.0,69,0.00,CLR,,0.00,WeatherDisplay:10.37,2014-03-07 22:26:00,
2014-03-07 16:31:00,57.9,47.8,30.01,WNW,292,0.0,0.0,69,0.00,CLR,,0.00,WeatherDisplay:10.37,2014-03-07 22:31:00,
2014-03-07 16:36:00,57.7,48.0,30.00,WNW,292,0.0,0.0,70,0.00,CLR,,0.00,WeatherDisplay:10.37,2014-03-07 22:36:00,
2014-03-07 16:41:00,57.6,47.8,30.01,WNW,292,0.0,0.0,70,0.00,CLR,,0.00,WeatherDisplay:10.37,2014-03-07 22:41:00,
2014-03-07 16:46:00,57.4,47.7,30.01,WNW,292,0.0,0.0,70,0.00,CLR,,0.00,WeatherDisplay:10.37,2014-03-07 22:46:00,
2014-03-07 16:51:00,57.2,47.5,30.01,West,270,0.0,0.0,70,0.00,CLR,,0.00,WeatherDisplay:10.37,2014-03-07 22:51:00,
2014-03-07 16:56:00,57.0,47.3,30.01,West,270,0.0,0.0,70,0.00,CLR,,0.00,WeatherDisplay:10.37,2014-03-07 22:56:00,
2014-03-07 17:01:00,57.0,47.7,30.01,West,270,0.0,0.0,71,0.00,CLR,,0.00,WeatherDisplay:10.37,2014-03-07 23:01:00,
2014-03-07 17:06:00,56.8,47.5,30.01,West,270,0.0,0.0,71,0.00,CLR,,0.00,WeatherDisplay:10.37,2014-03-07 23:06:00,
2014-03-07 17:11:00,56.8,47.5,30.01,NW,315,0.0,0.0,71,0.00,CLR,,0.00,WeatherDisplay:10.37,2014-03-07 23:11:00,
2014-03-07 17:16:00,56.5,46.8,30.00,ENE,68,0.0,0.0,70,0.00,CLR,,0.00,WeatherDisplay:10.37,2014-03-07 23:16:00,
2014-03-07 17:21:00,56.3,47.0,30.00,ENE,68,0.0,0.0,71,0.00,CLR,,0.00,WeatherDisplay:10.37,2014-03-07 23:21:00,
2014-03-07 17:26:00,56.1,46.8,30.00,ENE,68,0.0,0.0,71,0.00,CLR,,0.00,WeatherDisplay:10.37,2014-03-07 23:26:00,
2014-03-07 17:31:00,55.9,46.7,29.99,ENE,68,0.0,0.0,71,0.00,CLR,,0.00,WeatherDisplay:10.37,2014-03-07 23:31:00,
2014-03-07 17:36:00,55.8,46.9,29.99,ENE,68,0.0,0.0,72,0.00,CLR,,0.00,WeatherDisplay:10.37,2014-03-07 23:36:00,
2014-03-07 17:41:00,55.4,46.5,29.98,ENE,68,0.0,0.0,72,0.00,CLR,,0.00,WeatherDisplay:10.37,2014-03-07 23:41:00,
2014-03-07 17:46:00,55.2,46.3,29.98,ENE,68,0.0,0.0,72,0.00,CLR,,0.00,WeatherDisplay:10.37,2014-03-07 23:46:00,
2014-03-07 17:51:00,55.0,46.5,30.00,ENE,68,0.0,0.0,73,0.00,CLR,,0.00,WeatherDisplay:10.37,2014-03-07 23:51:00,
2014-03-07 17:56:00,54.9,46.4,30.00,ENE,68,0.0,0.0,73,0.00,CLR,,0.00,WeatherDisplay:10.37,2014-03-07 23:56:00,
2014-03-07 18:01:00,54.7,46.6,30.01,ENE,68,0.0,0.0,74,0.00,CLR,,0.00,WeatherDisplay:10.37,2014-03-08 00:01:00,
2014-03-07 18:06:00,54.1,46.0,30.01,ENE,68,0.0,0.0,74,0.00,CLR,,0.00,WeatherDisplay:10.37,2014-03-08 00:06:00,
2014-03-07 18:11:00,54.0,45.9,30.02,ENE,68,0.0,0.0,74,0.00,CLR,,0.00,WeatherDisplay:10.37,2014-03-08 00:11:00,
2014-03-07 18:16:00,53.8,46.0,30.02,ENE,68,0.0,0.0,75,0.00,CLR,,0.00,WeatherDisplay:10.37,2014-03-08 00:16:00,
2014-03-07 18:21:00,53.2,45.5,30.02,ENE,68,0.0,0.0,75,0.00,CLR,,0.00,WeatherDisplay:10.37,2014-03-08 00:21:00,
2014-03-07 18:26:00,52.9,45.5,30.01,ENE,68,0.0,0.0,76,0.00,CLR,,0.00,WeatherDisplay:10.37,2014-03-08 00:26:00,
2014-03-07 18:31:00,52.3,45.0,30.02,ENE,68,0.0,0.0,76,0.00,CLR,,0.00,WeatherDisplay:10.37,2014-03-08 00:31:00,
2014-03-07 18:36:00,52.3,45.0,30.02,ENE,68,0.0,0.0,76,0.00,CLR,,0.00,WeatherDisplay:10.37,2014-03-08 00:36:00,
2014-03-07 18:41:00,52.0,45.0,30.02,ENE,68,0.0,0.0,77,0.00,CLR,,0.00,WeatherDisplay:10.37,2014-03-08 00:41:00,
2014-03-07 18:46:00,51.6,44.6,30.03,SSE,158,0.0,0.0,77,0.00,CLR,,0.00,WeatherDisplay:10.37,2014-03-08 00:46:00,
2014-03-07 18:51:00,51.4,44.8,30.02,SSE,158,0.0,0.0,78,0.00,CLR,,0.00,WeatherDisplay:10.37,2014-03-08 00:51:00,
2014-03-07 18:56:00,51.3,44.6,30.03,SSE,158,0.0,0.0,78,0.00,CLR,,0.00,WeatherDisplay:10.37,2014-03-08 00:56:00,
2014-03-07 19:01:00,51.1,44.8,30.03,SSE,158,0.0,0.0,79,0.00,CLR,,0.00,WeatherDisplay:10.37,2014-03-08 01:01:00,
2014-03-07 19:06:00,50.7,44.4,30.03,SSE,158,0.0,0.0,79,0.00,CLR,,0.00,WeatherDisplay:10.37,2014-03-08 01:06:00,
2014-03-07 19:11:00,50.7,44.4,30.03,SSE,158,0.0,0.0,79,0.00,CLR,,0.00,WeatherDisplay:10.37,2014-03-08 01:11:00,
2014-03-07 19:16:00,50.4,44.4,30.03,SSE,158,0.0,0.0,80,0.00,CLR,,0.00,WeatherDisplay:10.37,2014-03-08 01:16:00,
2014-03-07 19:21:00,50.2,44.2,30.03,SSE,158,0.0,0.0,80,0.00,CLR,,0.00,WeatherDisplay:10.37,2014-03-08 01:21:00,
2014-03-07 19:26:00,49.8,43.9,30.03,SSE,158,0.0,0.0,80,0.00,CLR,,0.00,WeatherDisplay:10.37,2014-03-08 01:26:00,
2014-03-07 19:31:00,49.6,43.7,30.03,SSE,158,0.0,0.0,80,0.00,CLR,,0.00,WeatherDisplay:10.37,2014-03-08 01:31:00,
2014-03-07 19:36:00,49.3,43.7,30.03,SSE,158,0.0,0.0,81,0.00,CLR,,0.00,WeatherDisplay:10.37,2014-03-08 01:36:00,
2014-03-07 19:41:00,49.3,43.7,30.03,SSE,158,0.0,0.0,81,0.00,CLR,,0.00,WeatherDisplay:10.37,2014-03-08 01:41:00,
2014-03-07 19:46:00,48.7,43.5,30.03,South,180,0.0,0.0,82,0.00,CLR,,0.00,WeatherDisplay:10.37,2014-03-08 01:46:00,
2014-03-07 19:51:00,48.7,43.8,30.03,South,180,0.0,0.0,83,0.00,CLR,,0.00,WeatherDisplay:10.37,2014-03-08 01:51:00,
2014-03-07 19:56:00,48.6,43.6,30.03,South,180,0.0,0.0,83,0.00,CLR,,0.00,WeatherDisplay:10.37,2014-03-08 01:56:00,
2014-03-07 20:01:00,48.4,43.8,30.04,South,180,0.0,0.0,84,0.00,CLR,,0.00,WeatherDisplay:10.37,2014-03-08 02:01:00,
2014-03-07 20:06:00,48.4,43.8,30.03,South,180,0.0,0.0,84,0.00,CLR,,0.00,WeatherDisplay:10.37,2014-03-08 02:06:00,
2014-03-07 20:11:00,48.4,43.8,30.03,South,180,0.0,0.0,84,0.00,CLR,,0.00,WeatherDisplay:10.37,2014-03-08 02:11:00,
2014-03-07 20:16:00,48.2,43.6,30.04,South,180,0.0,0.0,84,0.00,CLR,,0.00,WeatherDisplay:10.37,2014-03-08 02:16:00,
2014-03-07 20:21:00,48.0,43.4,30.04,South,180,0.0,0.0,84,0.00,CLR,,0.00,WeatherDisplay:10.37,2014-03-08 02:21:00,
2014-03-07 20:26:00,48.0,43.4,30.04,South,180,0.0,0.0,84,0.00,CLR,,0.00,WeatherDisplay:10.37,2014-03-08 02:26:00,
2014-03-07 20:31:00,48.0,43.4,30.04,South,180,0.0,0.0,84,0.00,CLR,,0.00,WeatherDisplay:10.37,2014-03-08 02:31:00,
2014-03-07 20:36:00,47.7,43.1,30.04,South,180,0.0,0.0,84,0.00,CLR,,0.00,WeatherDisplay:10.37,2014-03-08 02:36:00,
2014-03-07 20:41:00,47.5,42.9,30.04,South,180,0.0,0.0,84,0.00,CLR,,0.00,WeatherDisplay:10.37,2014-03-08 02:41:00,
2014-03-07 20:46:00,47.1,42.8,30.05,South,180,0.0,0.0,85,0.00,CLR,,0.00,WeatherDisplay:10.37,2014-03-08 02:46:00,
2014-03-07 20:51:00,47.1,42.8,30.05,South,180,0.0,0.0,85,0.00,CLR,,0.00,WeatherDisplay:10.37,2014-03-08 02:51:00,
2014-03-07 20:56:00,46.9,42.7,30.05,South,180,0.0,0.0,85,0.00,CLR,,0.00,WeatherDisplay:10.37,2014-03-08 02:56:00,
2014-03-07 21:01:00,46.8,42.8,30.06,South,180,0.0,0.0,86,0.00,CLR,,0.00,WeatherDisplay:10.37,2014-03-08 03:01:00,
2014-03-07 21:06:00,46.6,42.6,30.06,South,180,0.0,0.0,86,0.00,CLR,,0.00,WeatherDisplay:10.37,2014-03-08 03:06:00,
2014-03-07 21:11:00,46.6,42.6,30.06,South,180,0.0,0.0,86,0.00,CLR,,0.00,WeatherDisplay:10.37,2014-03-08 03:11:00,
2014-03-07 21:16:00,46.6,42.6,30.06,South,180,0.0,0.0,86,0.00,CLR,,0.00,WeatherDisplay:10.37,2014-03-08 03:16:00,
2014-03-07 21:21:00,46.6,42.9,30.06,South,180,0.0,0.0,87,0.00,CLR,,0.00,WeatherDisplay:10.37,2014-03-08 03:21:00,
2014-03-07 21:26:00,46.6,42.9,30.06,South,180,0.0,0.0,87,0.00,CLR,,0.00,WeatherDisplay:10.37,2014-03-08 03:26:00,
2014-03-07 21:31:00,46.6,42.9,30.06,South,180,0.0,0.0,87,0.00,CLR,,0.00,WeatherDisplay:10.37,2014-03-08 03:31:00,
2014-03-07 21:36:00,46.2,42.6,30.06,South,180,0.0,0.0,87,0.00,CLR,,0.00,WeatherDisplay:10.37,2014-03-08 03:36:00,
2014-03-07 21:41:00,46.2,42.6,30.06,South,180,0.0,0.0,87,0.00,CLR,,0.00,WeatherDisplay:10.37,2014-03-08 03:41:00,
2014-03-07 21:46:00,46.0,42.4,30.06,South,180,0.0,0.0,87,0.00,CLR,,0.00,WeatherDisplay:10.37,2014-03-08 03:46:00,
2014-03-07 21:51:00,45.7,42.0,30.06,South,180,0.0,0.0,87,0.00,CLR,,0.00,WeatherDisplay:10.37,2014-03-08 03:51:00,
2014-03-07 21:56:00,45.5,41.9,30.06,South,180,0.0,0.0,87,0.00,CLR,,0.00,WeatherDisplay:10.37,2014-03-08 03:56:00,
2014-03-07 22:01:00,45.1,41.5,30.05,South,180,0.0,0.0,87,0.00,CLR,,0.00,WeatherDisplay:10.37,2014-03-08 04:01:00,
2014-03-07 22:06:00,45.1,41.5,30.05,South,180,0.0,0.0,87,0.00,CLR,,0.00,WeatherDisplay:10.37,2014-03-08 04:06:00,
2014-03-07 22:11:00,45.1,41.5,30.06,South,180,0.0,0.0,87,0.00,CLR,,0.00,WeatherDisplay:10.37,2014-03-08 04:11:00,
2014-03-07 22:16:00,45.0,41.3,30.06,South,180,0.0,0.0,87,0.00,CLR,,0.00,WeatherDisplay:10.37,2014-03-08 04:16:00,
2014-03-07 22:21:00,45.0,41.6,30.07,South,180,0.0,0.0,88,0.00,CLR,,0.00,WeatherDisplay:10.37,2014-03-08 04:21:00,
2014-03-07 22:26:00,45.0,41.6,30.06,South,180,0.0,0.0,88,0.00,CLR,,0.00,WeatherDisplay:10.37,2014-03-08 04:26:00,
2014-03-07 22:31:00,45.0,41.6,30.06,South,180,0.0,0.0,88,0.00,CLR,,0.00,WeatherDisplay:10.37,2014-03-08 04:31:00,
2014-03-07 22:36:00,45.0,41.6,30.06,South,180,0.0,0.0,88,0.00,CLR,,0.00,WeatherDisplay:10.37,2014-03-08 04:36:00,
2014-03-07 22:41:00,44.8,41.4,30.07,South,180,0.0,0.0,88,0.00,CLR,,0.00,WeatherDisplay:10.37,2014-03-08 04:41:00,
2014-03-07 22:46:00,44.6,41.3,30.06,South,180,0.0,0.0,88,0.00,CLR,,0.00,WeatherDisplay:10.37,2014-03-08 04:46:00,
2014-03-07 22:51:00,44.8,41.4,30.06,South,180,0.0,0.0,88,0.00,CLR,,0.00,WeatherDisplay:10.37,2014-03-08 04:51:00,
2014-03-07 22:56:00,44.6,41.3,30.06,South,180,0.0,0.0,88,0.00,CLR,,0.00,WeatherDisplay:10.37,2014-03-08 04:56:00,
2014-03-07 23:01:00,44.6,41.3,30.07,South,180,0.0,0.0,88,0.00,CLR,,0.00,WeatherDisplay:10.37,2014-03-08 05:01:00,
2014-03-07 23:02:00,44.6,41.3,30.07,South,180,0.0,0.0,88,0.00,CLR,,0.00,WeatherDisplay:10.37,2014-03-08 05:02:00,
2014-03-07 23:03:00,44.6,41.3,30.07,South,180,0.0,0.0,88,0.00,CLR,,0.00,WeatherDisplay:10.37,2014-03-08 05:03:00,
2014-03-07 23:06:00,44.6,41.3,30.07,South,180,0.0,0.0,88,0.00,CLR,,0.00,WeatherDisplay:10.37,2014-03-08 05:06:00,
2014-03-07 23:11:00,44.4,41.1,30.07,South,180,0.0,0.0,88,0.00,CLR,,0.00,WeatherDisplay:10.37,2014-03-08 05:11:00,
2014-03-07 23:16:00,44.4,41.1,30.06,South,180,0.0,0.0,88,0.00,CLR,,0.00,WeatherDisplay:10.37,2014-03-08 05:16:00,
2014-03-07 23:21:00,44.4,41.1,30.07,South,180,0.0,0.0,88,0.00,CLR,,0.00,WeatherDisplay:10.37,2014-03-08 05:21:00,
2014-03-07 23:26:00,44.4,41.1,30.07,South,180,0.0,0.0,88,0.00,CLR,,0.00,WeatherDisplay:10.37,2014-03-08 05:26:00,
2014-03-07 23:31:00,44.2,40.9,30.07,South,180,0.0,0.0,88,0.00,CLR,,0.00,WeatherDisplay:10.37,2014-03-08 05:31:00,
2014-03-07 23:36:00,44.2,40.9,30.07,South,180,0.0,0.0,88,0.00,CLR,,0.00,WeatherDisplay:10.37,2014-03-08 05:36:00,
2014-03-07 23:41:00,44.1,40.7,30.06,South,180,0.0,0.0,88,0.00,CLR,,0.00,WeatherDisplay:10.37,2014-03-08 05:41:00,
2014-03-07 23:46:00,43.9,40.6,30.06,South,180,0.0,0.0,88,0.00,CLR,,0.00,WeatherDisplay:10.37,2014-03-08 05:46:00,
2014-03-07 23:51:00,43.7,40.4,30.06,South,180,0.0,0.0,88,0.00,CLR,,0.00,WeatherDisplay:10.37,2014-03-08 05:51:00,
2014-03-07 23:56:00,43.5,40.5,30.06,South,180,0.0,0.0,89,0.00,CLR,,0.00,WeatherDisplay:10.37,2014-03-08 05:56:00,